Time;durP1;ratioP1;P1;durP2;ratioP2;P2;SDS_P1;SDS_P2;PMS_P1;PMS_P2;Temp;Humidity;BMP_temperature;BMP_pressure;BME280_temperature;BME280_humidity;BME280_pressure;Samples;Min_cycle;Max_cycle;Signal;HPM_P1;HPM_P2
2021/05/09 00:00:00;;;;;;;4.55;1.35;;;;;;;22.70;45.97;97921.53;5059373;28;20209;-58
2021/05/09 00:02:27;;;;;;;3.97;1.45;;;;;;;22.69;45.68;97922.53;5070386;28;20199;-60
2021/05/09 00:04:53;;;;;;;3.45;1.70;;;;;;;22.68;45.54;97913.72;5064424;28;20195;-58
2021/05/09 00:07:19;;;;;;;2.75;1.02;;;;;;;22.68;45.73;97912.88;5059006;28;20716;-55
2021/05/09 00:09:47;;;;;;;2.65;1.40;;;;;;;22.68;45.44;97918.19;5052621;28;20213;-59
2021/05/09 00:12:14;;;;;;;6.90;1.25;;;;;;;22.67;45.88;97914.72;5048820;28;20232;-52
2021/05/09 00:14:40;;;;;;;3.45;1.17;;;;;;;22.66;45.31;97910.38;5060830;28;20227;-59
2021/05/09 00:17:06;;;;;;;2.67;1.30;;;;;;;22.66;46.11;97906.88;5058064;28;20199;-60
2021/05/09 00:19:32;;;;;;;2.75;1.23;;;;;;;22.65;46.12;97899.88;5065234;28;20244;-61
2021/05/09 00:21:58;;;;;;;4.90;1.55;;;;;;;22.65;45.95;97897.22;5064412;28;20228;-60
2021/05/09 00:24:24;;;;;;;3.45;1.25;;;;;;;22.64;45.72;97892.91;5063770;28;20202;-60
2021/05/09 00:26:51;;;;;;;2.45;1.48;;;;;;;22.64;46.18;97892.91;5062701;28;20275;-60
2021/05/09 00:29:17;;;;;;;2.75;1.13;;;;;;;22.64;46.01;97882.25;5065387;28;20226;-57
2021/05/09 00:31:43;;;;;;;4.70;1.90;;;;;;;22.63;45.99;97883.25;5065066;28;20213;-60
2021/05/09 00:34:09;;;;;;;3.30;1.35;;;;;;;22.63;45.98;97877.94;5065222;28;20238;-61
2021/05/09 00:36:35;;;;;;;2.40;1.42;;;;;;;22.62;46.38;97877.09;5065621;28;20302;-56
2021/05/09 00:39:01;;;;;;;3.38;1.33;;;;;;;22.62;45.65;97870.97;5065172;28;20305;-62
2021/05/09 00:41:27;;;;;;;4.50;1.60;;;;;;;22.60;45.93;97864.94;5089085;28;20226;-56
2021/05/09 00:43:54;;;;;;;4.47;1.60;;;;;;;22.60;45.87;97875.59;5071953;28;20309;-64
2021/05/09 00:46:20;;;;;;;2.00;1.20;;;;;;;22.60;45.58;97867.63;5074937;28;20270;-59
2021/05/09 00:48:46;;;;;;;3.75;1.45;;;;;;;22.58;45.48;97859.78;5070604;28;20809;-55
2021/05/09 00:51:13;;;;;;;1.98;1.00;;;;;;;22.58;45.53;97880.28;5068856;28;20206;-57
2021/05/09 00:53:42;;;;;;;3.25;1.15;;;;;;;22.58;46.23;97866.97;5067937;28;20622;-58
2021/05/09 00:56:12;;;;;;;3.72;1.33;;;;;;;22.56;45.65;97867.13;5063027;28;20195;-56
2021/05/09 00:58:39;;;;;;;3.08;1.15;;;;;;;22.53;46.43;97863.00;5065724;28;20258;-61
2021/05/09 01:01:06;;;;;;;3.17;1.27;;;;;;;22.54;46.30;97855.84;5066289;28;20230;-61
2021/05/09 01:03:33;;;;;;;3.33;1.30;;;;;;;22.52;45.33;97852.53;5069334;28;20217;-57
2021/05/09 01:06:01;;;;;;;1.67;0.90;;;;;;;22.53;45.70;97852.34;5067308;28;20233;-57
2021/05/09 01:08:28;;;;;;;4.03;1.38;;;;;;;22.53;46.59;97855.03;5066429;28;20238;-57
2021/05/09 01:10:54;;;;;;;5.82;1.50;;;;;;;22.54;46.12;97858.50;5051186;28;20227;-58
2021/05/09 01:13:21;;;;;;;2.22;1.20;;;;;;;22.51;46.44;97851.69;5063773;28;20225;-58
2021/05/09 01:15:47;;;;;;;4.13;1.08;;;;;;;22.49;46.00;97848.38;5065405;28;20218;-56
2021/05/09 01:18:14;;;;;;;5.10;1.10;;;;;;;22.48;45.92;97846.72;5062025;28;20242;-59
2021/05/09 01:20:41;;;;;;;3.97;1.33;;;;;;;22.48;46.54;97851.19;5063240;28;20668;-59
2021/05/09 01:23:07;;;;;;;3.47;1.27;;;;;;;22.46;46.57;97843.38;5059275;28;20211;-56
2021/05/09 01:25:34;;;;;;;3.30;1.33;;;;;;;22.45;45.86;97839.09;5065341;28;20290;-52
2021/05/09 01:28:00;;;;;;;3.50;1.15;;;;;;;22.46;46.24;97840.72;5066741;28;21021;-54
2021/05/09 01:30:26;;;;;;;3.72;1.30;;;;;;;22.45;45.67;97841.75;5067006;28;20202;-56
2021/05/09 01:32:53;;;;;;;3.65;1.27;;;;;;;22.44;46.00;97836.59;5066403;28;20195;-56
2021/05/09 01:35:19;;;;;;;3.47;1.40;;;;;;;22.42;46.66;97826.09;5057861;28;20258;-58
2021/05/09 01:37:46;;;;;;;2.90;1.33;;;;;;;22.42;46.04;97844.75;5068168;28;20653;-59
2021/05/09 01:40:13;;;;;;;4.30;1.27;;;;;;;22.43;46.54;97837.59;5062645;28;20211;-57
2021/05/09 01:42:40;;;;;;;3.88;1.23;;;;;;;22.41;46.24;97840.41;5061894;28;20208;-58
2021/05/09 01:45:08;;;;;;;5.32;1.63;;;;;;;22.41;46.16;97837.75;5065708;28;20268;-58
2021/05/09 01:47:36;;;;;;;3.20;1.02;;;;;;;22.41;46.55;97844.91;5065475;28;20203;-60
2021/05/09 01:50:06;;;;;;;2.92;0.90;;;;;;;22.41;45.94;97847.59;5064077;28;20219;-57
2021/05/09 01:52:32;;;;;;;3.45;1.23;;;;;;;22.39;46.33;97842.44;5067027;28;20328;-59
2021/05/09 01:54:59;;;;;;;3.60;1.17;;;;;;;22.38;46.53;97842.59;5058384;28;20932;-55
2021/05/09 01:57:25;;;;;;;4.95;1.15;;;;;;;22.38;46.28;97840.75;5064565;28;20202;-55
2021/05/09 01:59:51;;;;;;;2.65;1.20;;;;;;;22.37;46.45;97844.44;5059864;28;20206;-57
2021/05/09 02:02:17;;;;;;;4.00;1.15;;;;;;;22.36;46.65;97842.78;5065561;28;20664;-61
2021/05/09 02:04:43;;;;;;;2.28;1.35;;;;;;;22.35;46.85;97849.94;5063902;28;20203;-57
2021/05/09 02:07:09;;;;;;;2.33;1.08;;;;;;;22.34;46.57;97839.47;5066587;28;20629;-59
2021/05/09 02:09:35;;;;;;;2.35;1.08;;;;;;;22.34;46.08;97842.13;5065548;28;20466;-56
2021/05/09 02:12:03;;;;;;;5.82;1.05;;;;;;;22.32;46.33;97839.63;5062673;28;20213;-57
2021/05/09 02:14:29;;;;;;;3.38;1.38;;;;;;;22.32;46.75;97836.16;5064759;28;20271;-61
2021/05/09 02:16:55;;;;;;;2.33;1.30;;;;;;;22.33;46.07;97840.47;5060980;28;20686;-61
2021/05/09 02:19:21;;;;;;;1.73;1.10;;;;;;;22.31;46.05;97831.81;5064476;28;20226;-55
2021/05/09 02:21:47;;;;;;;2.55;0.90;;;;;;;22.30;47.09;97835.47;5063245;28;20222;-62
2021/05/09 02:24:13;;;;;;;2.42;1.10;;;;;;;22.30;46.88;97836.31;5064742;28;20639;-57
2021/05/09 02:26:39;;;;;;;3.03;1.00;;;;;;;22.30;46.81;97831.00;5063094;28;20263;-60
2021/05/09 02:29:06;;;;;;;3.15;1.20;;;;;;;22.29;46.11;97829.31;5066499;28;20229;-54
2021/05/09 02:31:32;;;;;;;2.92;0.93;;;;;;;22.30;46.39;97833.66;5065526;28;20297;-57
2021/05/09 02:33:59;;;;;;;2.85;1.05;;;;;;;22.28;46.66;97826.81;5068163;28;20311;-59
2021/05/09 02:36:25;;;;;;;2.17;1.17;;;;;;;22.28;46.47;97826.81;5066496;28;20209;-66
2021/05/09 02:38:51;;;;;;;1.60;1.00;;;;;;;22.27;46.32;97825.97;5065116;28;20271;-60
2021/05/09 02:41:17;;;;;;;5.95;1.33;;;;;;;22.28;46.92;97821.47;5065292;28;20198;-57
2021/05/09 02:43:43;;;;;;;1.30;0.80;;;;;;;22.26;46.97;97823.50;5064002;28;20573;-58
2021/05/09 02:46:10;;;;;;;2.22;1.10;;;;;;;22.24;46.75;97822.84;5065938;28;20201;-58
2021/05/09 02:48:36;;;;;;;4.55;1.20;;;;;;;22.25;46.56;97824.47;5066501;28;20215;-54
2021/05/09 02:51:02;;;;;;;1.48;0.70;;;;;;;22.25;46.53;97832.47;5066241;28;20294;-56
2021/05/09 02:53:28;;;;;;;2.00;1.00;;;;;;;22.26;46.62;97829.63;5066625;28;20205;-57
2021/05/09 02:55:54;;;;;;;3.05;1.02;;;;;;;22.22;46.77;97827.53;5057947;28;20225;-54
2021/05/09 02:58:20;;;;;;;5.13;1.10;;;;;;;22.22;47.10;97830.19;5060113;28;20308;-54
2021/05/09 03:00:46;;;;;;;2.60;1.20;;;;;;;22.22;46.69;97832.84;5065253;28;20214;-59
2021/05/09 03:03:13;;;;;;;1.70;1.10;;;;;;;22.22;46.95;97830.19;5064299;28;20591;-57
2021/05/09 03:05:39;;;;;;;2.03;1.10;;;;;;;22.21;46.26;97832.00;5066542;28;20214;-60
2021/05/09 03:08:06;;;;;;;3.90;1.13;;;;;;;22.21;46.42;97825.84;5061168;28;20314;-59
2021/05/09 03:10:33;;;;;;;1.25;1.00;;;;;;;22.21;46.40;97817.88;5064889;28;20202;-60
2021/05/09 03:13:00;;;;;;;2.33;0.95;;;;;;;22.20;46.96;97824.19;5066279;28;20203;-58
2021/05/09 03:15:26;;;;;;;3.22;1.00;;;;;;;22.18;47.11;97814.56;5062566;28;20218;-57
2021/05/09 03:17:52;;;;;;;2.35;0.80;;;;;;;22.17;47.10;97823.53;5055515;28;20306;-58
2021/05/09 03:20:19;;;;;;;2.72;1.10;;;;;;;22.17;46.85;97823.53;5065773;28;20224;-64
2021/05/09 03:22:47;;;;;;;1.77;1.10;;;;;;;22.18;46.52;97822.53;5063086;28;20194;-59
2021/05/09 03:25:13;;;;;;;1.80;0.82;;;;;;;22.18;46.44;97819.88;5051493;28;20195;-55
2021/05/09 03:27:39;;;;;;;1.52;0.80;;;;;;;22.18;46.91;97816.38;5061115;28;20266;-62
2021/05/09 03:30:06;;;;;;;2.72;1.00;;;;;;;22.15;47.14;97817.56;5065270;28;20313;-61
2021/05/09 03:32:33;;;;;;;2.47;1.13;;;;;;;22.15;46.47;97822.88;5062846;28;20208;-59
2021/05/09 03:34:59;;;;;;;4.43;0.90;;;;;;;22.13;46.85;97824.91;5066886;28;20521;-59
2021/05/09 03:37:26;;;;;;;2.78;0.80;;;;;;;22.13;47.16;97819.56;5070217;28;20211;-61
2021/05/09 03:39:52;;;;;;;1.42;0.90;;;;;;;22.15;47.04;97814.06;5069503;28;20294;-58
2021/05/09 03:42:18;;;;;;;3.40;1.17;;;;;;;22.13;46.59;97808.94;5062210;28;20674;-59
2021/05/09 03:44:44;;;;;;;3.25;0.95;;;;;;;22.13;47.18;97813.41;5064559;28;20532;-57
2021/05/09 03:47:10;;;;;;;1.80;0.80;;;;;;;22.12;47.17;97812.56;5061783;28;20191;-56
2021/05/09 03:49:36;;;;;;;1.60;0.93;;;;;;;22.14;47.32;97810.56;5057655;28;20320;-61
2021/05/09 03:52:02;;;;;;;2.47;1.10;;;;;;;22.13;47.38;97811.59;5063004;28;20195;-58
2021/05/09 03:54:29;;;;;;;1.67;0.90;;;;;;;22.11;47.09;97808.25;5063148;28;20248;-59
2021/05/09 03:56:55;;;;;;;1.45;0.98;;;;;;;22.10;46.99;97803.94;5059008;28;20289;-59
2021/05/09 03:59:21;;;;;;;2.65;1.05;;;;;;;22.09;47.69;97807.59;5063994;28;20246;-58
2021/05/09 04:01:47;;;;;;;1.35;0.90;;;;;;;22.11;47.04;97810.91;5057548;28;20278;-59
2021/05/09 04:04:13;;;;;;;6.10;1.20;;;;;;;22.10;46.75;97809.25;5058593;28;20342;-58
2021/05/09 04:06:39;;;;;;;2.50;1.08;;;;;;;22.09;47.40;97802.28;5062904;28;20275;-56
2021/05/09 04:09:06;;;;;;;1.98;1.17;;;;;;;22.08;46.67;97805.97;5060826;28;20242;-56
2021/05/09 04:11:33;;;;;;;2.17;1.00;;;;;;;22.07;47.19;97798.97;5064318;28;20199;-57
2021/05/09 04:13:59;;;;;;;3.15;1.00;;;;;;;22.08;46.63;97797.97;5063316;28;20194;-60
2021/05/09 04:16:26;;;;;;;2.17;0.82;;;;;;;22.08;47.31;97797.97;5059065;28;20219;-59
2021/05/09 04:18:52;;;;;;;2.65;1.05;;;;;;;22.06;46.84;97791.16;5057237;28;20299;-56
2021/05/09 04:21:18;;;;;;;1.65;0.90;;;;;;;22.05;46.99;97795.66;5064801;28;20195;-58
2021/05/09 04:23:44;;;;;;;3.17;0.80;;;;;;;22.07;47.03;97798.97;5056905;28;20377;-57
2021/05/09 04:26:10;;;;;;;3.15;1.02;;;;;;;22.06;47.04;97791.97;5050600;28;20196;-59
2021/05/09 04:28:37;;;;;;;2.42;0.90;;;;;;;22.07;46.82;97798.97;5062417;28;20230;-59
2021/05/09 04:31:03;;;;;;;4.25;1.10;;;;;;;22.05;47.71;97790.31;5063490;28;20286;-57
2021/05/09 04:33:29;;;;;;;1.75;0.80;;;;;;;22.05;46.83;97793.00;5064639;28;20210;-58
2021/05/09 04:35:55;;;;;;;2.35;1.00;;;;;;;22.05;46.90;97803.63;5064672;28;20226;-58
2021/05/09 04:38:21;;;;;;;1.30;1.00;;;;;;;22.05;47.35;97797.47;5062417;28;20309;-60
2021/05/09 04:40:48;;;;;;;2.03;0.80;;;;;;;22.04;46.66;97793.97;5062879;28;21046;-60
2021/05/09 04:43:16;;;;;;;5.45;1.48;;;;;;;22.04;47.54;97788.66;5063161;28;20230;-59
2021/05/09 04:45:46;;;;;;;1.58;0.90;;;;;;;22.03;46.97;97789.66;5057191;28;20637;-60
2021/05/09 04:48:12;;;;;;;1.65;1.10;;;;;;;22.05;47.68;97782.34;5065055;28;20851;-59
2021/05/09 04:50:38;;;;;;;1.50;1.00;;;;;;;22.03;46.86;97789.66;5061891;28;20195;-59
2021/05/09 04:53:21;;;;;;;1.95;0.80;;;;;;;22.03;47.54;97792.31;5061378;28;20213;-59
2021/05/09 04:55:47;;;;;;;1.58;0.95;;;;;;;22.02;47.01;97788.00;5053519;28;20215;-57
2021/05/09 04:58:13;;;;;;;3.05;0.90;;;;;;;21.99;46.80;97789.16;5062869;28;20878;-58
2021/05/09 05:00:39;;;;;;;1.77;0.90;;;;;;;22.00;47.26;97792.69;5061552;28;20682;-56
2021/05/09 05:03:06;;;;;;;3.78;0.93;;;;;;;21.96;47.03;97792.16;5062280;28;20210;-61
2021/05/09 05:05:32;;;;;;;3.22;0.95;;;;;;;21.96;46.88;97797.50;5063815;28;20293;-60
2021/05/09 05:07:58;;;;;;;3.97;1.05;;;;;;;21.95;47.66;97789.72;5063690;28;20222;-56
2021/05/09 05:10:24;;;;;;;2.40;0.90;;;;;;;21.95;47.94;97785.22;5062741;28;20203;-64
2021/05/09 05:12:50;;;;;;;2.00;0.90;;;;;;;21.94;47.67;97796.03;5060645;28;20209;-57
2021/05/09 05:15:17;;;;;;;1.42;0.80;;;;;;;21.94;47.19;97788.84;5062076;28;20303;-49
2021/05/09 05:17:43;;;;;;;2.33;0.80;;;;;;;21.93;47.87;97791.69;5061261;28;20207;-56
2021/05/09 05:20:11;;;;;;;2.75;1.00;;;;;;;21.93;46.94;97800.53;5054206;28;20587;-63
2021/05/09 05:22:37;;;;;;;1.05;0.82;;;;;;;21.93;47.29;97799.69;5060040;28;20207;-55
2021/05/09 05:25:04;;;;;;;1.20;0.80;;;;;;;21.92;47.47;97795.38;5060569;28;20303;-56
2021/05/09 05:27:30;;;;;;;4.72;1.10;;;;;;;21.94;47.91;97804.00;5058739;28;20987;-59
2021/05/09 05:29:56;;;;;;;2.05;0.88;;;;;;;21.94;46.82;97806.66;5067202;28;20290;-57
2021/05/09 05:32:22;;;;;;;4.95;1.00;;;;;;;21.95;46.99;97813.66;5064488;28;20209;-55
2021/05/09 05:34:48;;;;;;;3.60;1.10;;;;;;;21.99;47.79;97810.47;5066050;28;20240;-54
2021/05/09 05:37:15;;;;;;;1.80;0.90;;;;;;;22.02;47.77;97803.97;5064353;28;20608;-55
2021/05/09 05:39:41;;;;;;;1.58;0.88;;;;;;;22.05;47.89;97810.78;5064636;28;20219;-55
2021/05/09 05:42:07;;;;;;;2.35;0.90;;;;;;;22.07;47.67;97798.13;5063229;28;20347;-56
2021/05/09 05:44:33;;;;;;;1.20;0.70;;;;;;;22.09;47.77;97804.94;5066936;28;20215;-52
2021/05/09 05:46:59;;;;;;;2.67;0.90;;;;;;;22.15;48.02;97803.44;5060894;28;20821;-52
2021/05/09 05:49:26;;;;;;;2.17;0.82;;;;;;;22.18;47.06;97801.25;5058334;28;20226;-55
2021/05/09 05:51:52;;;;;;;2.28;0.88;;;;;;;22.27;47.27;97798.53;5068404;28;20206;-51
2021/05/09 05:54:19;;;;;;;1.33;0.90;;;;;;;22.30;46.56;97795.53;5064093;28;20218;-59
2021/05/09 05:56:45;;;;;;;2.58;0.80;;;;;;;22.35;47.14;97799.34;5063926;28;20573;-58
2021/05/09 05:59:11;;;;;;;2.10;0.70;;;;;;;22.38;46.43;97794.66;5061328;28;20226;-54
2021/05/09 06:01:37;;;;;;;1.92;0.75;;;;;;;22.42;46.90;97793.31;5064208;28;20202;-54
2021/05/09 06:04:03;;;;;;;0.90;0.70;;;;;;;22.43;46.70;97793.16;5061793;28;20213;-54
2021/05/09 06:06:29;;;;;;;1.10;0.68;;;;;;;22.43;47.29;97793.16;5065024;28;20199;-60
2021/05/09 06:08:57;;;;;;;1.55;0.80;;;;;;;22.45;47.21;97790.28;5066255;28;20262;-57
2021/05/09 06:11:24;;;;;;;1.60;0.63;;;;;;;22.45;47.18;97791.13;5062774;28;20218;-60
2021/05/09 06:13:50;;;;;;;1.65;0.70;;;;;;;22.47;47.34;97786.47;5053906;28;20207;-61
2021/05/09 06:16:16;;;;;;;1.27;0.80;;;;;;;22.47;47.41;97783.78;5058072;28;20233;-59
2021/05/09 06:18:42;;;;;;;3.10;0.90;;;;;;;22.49;47.63;97787.09;5063234;28;20724;-60
2021/05/09 06:21:08;;;;;;;1.08;0.75;;;;;;;22.49;46.90;97787.09;5066999;28;20202;-59
2021/05/09 06:23:34;;;;;;;2.15;0.85;;;;;;;22.51;47.06;97789.59;5067018;28;20298;-61
2021/05/09 06:26:00;;;;;;;2.03;0.80;;;;;;;22.51;47.00;97789.59;5067928;28;20788;-58
2021/05/09 06:28:27;;;;;;;1.70;0.90;;;;;;;22.52;46.46;97783.28;5067160;28;20242;-60
2021/05/09 06:30:53;;;;;;;2.92;0.70;;;;;;;22.52;47.02;97784.09;5072018;28;20293;-60
2021/05/09 06:33:19;;;;;;;1.13;0.70;;;;;;;22.54;46.47;97783.91;5078576;28;20266;-61
2021/05/09 06:35:45;;;;;;;1.58;0.73;;;;;;;22.56;46.20;97781.06;5071765;28;20291;-58
2021/05/09 06:38:11;;;;;;;1.10;0.52;;;;;;;22.52;46.82;97786.75;5066249;28;20222;-58
2021/05/09 06:40:38;;;;;;;1.30;0.90;;;;;;;22.54;46.51;97784.75;5059540;28;20229;-56
2021/05/09 06:43:06;;;;;;;0.85;0.60;;;;;;;22.56;46.84;97778.41;5065975;28;20309;-60
2021/05/09 06:45:33;;;;;;;2.08;0.90;;;;;;;;;;5062155;28;20298;-56
2021/05/09 06:48:01;;;;;;;1.20;0.75;;;;;;;;;;5066338;28;20218;-59
2021/05/09 06:50:29;;;;;;;1.15;0.75;;;;;;;22.59;46.55;97780.72;5060087;28;20565;-59
2021/05/09 06:52:55;;;;;;;2.10;0.68;;;;;;;22.59;46.76;97778.88;5065923;28;20654;-58
2021/05/09 06:55:21;;;;;;;1.63;0.90;;;;;;;22.60;46.60;97777.03;5061654;28;20231;-53
2021/05/09 06:57:47;;;;;;;1.20;0.70;;;;;;;22.61;46.38;97776.03;5062575;28;20656;-55
2021/05/09 07:00:16;;;;;;;4.85;0.90;;;;;;;22.66;46.88;97777.16;5063717;28;20293;-65
2021/05/09 07:02:43;;;;;;;6.55;1.02;;;;;;;22.69;46.16;97776.81;5066214;28;20696;-66
2021/05/09 07:05:10;;;;;;;2.97;0.80;;;;;;;22.73;46.07;97771.94;5068785;28;20199;-57
2021/05/09 07:07:47;;;;;;;3.30;0.88;;;;;;;22.77;46.63;97767.94;5065415;28;20206;-59
2021/05/09 07:10:13;;;;;;;1.67;0.90;;;;;;;22.82;46.85;97765.56;5068694;28;20214;-58
2021/05/09 07:12:39;;;;;;;11.18;0.93;;;;;;;22.84;47.05;97768.88;5061275;28;20589;-57
2021/05/09 07:15:07;;;;;;;20.65;2.13;;;;;;;22.89;48.36;97760.34;5061217;28;20275;-59
2021/05/09 07:17:33;;;;;;;17.63;1.48;;;;;;;22.90;47.57;97770.00;5057513;28;20221;-61
2021/05/09 07:20:00;;;;;;;34.30;2.80;;;;;;;22.92;48.83;97766.13;5067721;28;20298;-63
2021/05/09 07:22:29;;;;;;;16.48;2.35;;;;;;;22.94;47.00;97767.81;5060078;28;20207;-66
2021/05/09 07:24:55;;;;;;;11.35;1.73;;;;;;;22.92;47.30;97760.81;5060594;28;20306;-70
2021/05/09 07:27:21;;;;;;;12.25;1.45;;;;;;;22.92;47.20;97758.13;5062656;28;20286;-66
2021/05/09 07:29:47;;;;;;;14.30;2.20;;;;;;;22.95;48.69;97761.44;5065309;28;20214;-70
2021/05/09 07:32:13;;;;;;;15.57;1.92;;;;;;;22.96;47.64;97749.78;5066430;28;20750;-69
2021/05/09 07:34:39;;;;;;;12.32;1.83;;;;;;;22.95;48.23;97746.31;5066036;28;20248;-66
2021/05/09 07:37:06;;;;;;;10.00;1.65;;;;;;;22.96;47.87;97744.47;5067653;28;20719;-64
2021/05/09 07:39:32;;;;;;;15.13;1.85;;;;;;;22.96;47.79;97755.13;5069531;28;20689;-62
2021/05/09 07:41:58;;;;;;;15.88;2.13;;;;;;;22.95;47.39;97748.13;5062179;28;20290;-67
2021/05/09 07:44:25;;;;;;;10.27;1.75;;;;;;;22.95;47.62;97746.31;5065821;28;20220;-65
2021/05/09 07:46:52;;;;;;;7.55;1.60;;;;;;;22.91;47.15;97737.00;5059428;28;20211;-59
2021/05/09 07:49:18;;;;;;;6.38;1.42;;;;;;;22.82;46.93;97738.09;5059841;28;20310;-66
2021/05/09 07:51:44;;;;;;;7.32;1.25;;;;;;;22.82;47.52;97738.09;5061443;28;20728;-63
2021/05/09 07:54:11;;;;;;;11.88;2.05;;;;;;;22.82;47.08;97730.91;5069111;28;20231;-64
2021/05/09 07:56:38;;;;;;;9.63;1.00;;;;;;;22.84;47.12;97726.22;5070202;28;20305;-66
2021/05/09 07:59:05;;;;;;;9.82;1.40;;;;;;;22.83;47.06;97721.94;5065795;28;20252;-64
2021/05/09 08:01:31;;;;;;;6.25;1.15;;;;;;;22.86;47.51;97718.06;5064543;28;20294;-66
2021/05/09 08:03:57;;;;;;;7.15;1.00;;;;;;;22.85;47.61;97719.91;5064163;28;20328;-68
2021/05/09 08:06:23;;;;;;;4.75;1.05;;;;;;;22.84;47.33;97710.25;5060653;28;20553;-66
2021/05/09 08:08:49;;;;;;;7.22;1.15;;;;;;;22.84;47.32;97710.25;5062225;28;20319;-66
2021/05/09 08:11:16;;;;;;;5.03;0.90;;;;;;;22.84;47.77;97710.25;5066947;28;20611;-66
2021/05/09 08:13:42;;;;;;;5.60;1.10;;;;;;;22.84;46.37;97704.91;5063299;28;20206;-66
2021/05/09 08:16:08;;;;;;;4.65;1.20;;;;;;;22.84;47.69;97691.59;5064249;28;20770;-62
2021/05/09 08:18:34;;;;;;;5.35;1.00;;;;;;;22.85;47.50;97693.25;5061814;28;20265;-63
2021/05/09 08:21:02;;;;;;;2.95;1.10;;;;;;;22.85;46.64;97687.91;5065188;28;20211;-64
2021/05/09 08:23:28;;;;;;;3.42;1.00;;;;;;;22.85;47.25;97682.59;5066737;28;20203;-67
2021/05/09 08:25:54;;;;;;;3.15;0.85;;;;;;;22.85;47.63;97687.09;5062503;28;20214;-64
2021/05/09 08:28:21;;;;;;;5.20;1.02;;;;;;;22.87;46.88;97683.22;5066912;28;20713;-63
2021/05/09 08:30:48;;;;;;;8.40;1.42;;;;;;;22.89;46.68;97680.38;5064892;28;20886;-60
2021/05/09 08:33:14;;;;;;;4.10;1.10;;;;;;;22.86;46.58;97684.22;5059915;28;20220;-67
2021/05/09 08:35:40;;;;;;;6.65;0.88;;;;;;;22.85;46.88;97681.78;5061651;28;20367;-63
2021/05/09 08:38:06;;;;;;;5.63;1.00;;;;;;;22.81;46.61;97681.28;5062900;28;20313;-65
2021/05/09 08:40:32;;;;;;;5.82;1.30;;;;;;;22.80;46.18;97679.63;5062656;28;20211;-58
2021/05/09 08:42:59;;;;;;;6.43;1.58;;;;;;;22.83;46.61;97676.63;5060716;28;20344;-61
2021/05/09 08:45:26;;;;;;;3.42;1.20;;;;;;;22.83;45.09;97676.63;5062543;28;20299;-62
2021/05/09 08:47:54;;;;;;;4.78;1.10;;;;;;;22.87;44.58;97675.22;5064766;28;20309;-60
2021/05/09 08:50:22;;;;;;;3.47;1.20;;;;;;;22.88;44.85;97676.91;5063677;28;20719;-69
2021/05/09 08:52:50;;;;;;;8.35;1.00;;;;;;;22.88;44.33;97674.22;5069113;28;20284;-70
2021/05/09 08:55:18;;;;;;;4.97;1.17;;;;;;;22.95;44.80;97673.47;5068729;28;20313;-66
2021/05/09 08:57:45;;;;;;;2.28;1.10;;;;;;;22.95;45.18;97676.16;5068473;28;20215;-59
2021/05/09 09:00:13;;;;;;;2.17;1.10;;;;;;;22.97;44.83;97666.97;5063569;28;20316;-67
2021/05/09 09:02:41;;;;;;;4.38;1.08;;;;;;;22.97;44.57;97656.31;5070739;28;20202;-62
2021/05/09 09:05:08;;;;;;;3.45;1.00;;;;;;;23.01;44.73;97651.44;5069120;28;20339;-65
2021/05/09 09:07:45;;;;;;;4.60;1.00;;;;;;;23.03;45.05;97652.06;5084458;28;20230;-62
2021/05/09 09:10:28;;;;;;;3.35;0.98;;;;;;;23.04;44.64;97637.75;5071225;28;20217;-63
2021/05/09 09:12:54;;;;;;;4.70;1.02;;;;;;;23.05;44.08;97637.56;5076063;28;20199;-64
2021/05/09 09:15:21;;;;;;;3.65;1.02;;;;;;;23.06;44.31;97630.38;5081135;28;20295;-61
2021/05/09 09:17:48;;;;;;;3.55;0.85;;;;;;;23.08;44.63;97631.06;5071254;28;20877;-61
2021/05/09 09:20:17;;;;;;;2.67;1.00;;;;;;;23.08;44.39;97637.25;5066721;28;20230;-65
2021/05/09 09:23:03;;;;;;;1.85;0.80;;;;;;;23.12;44.19;97624.38;5067416;28;20210;-61
2021/05/09 09:25:31;;;;;;;4.80;1.00;;;;;;;23.12;44.73;97616.38;5062732;28;20270;-65
2021/05/09 09:27:58;;;;;;;2.28;0.90;;;;;;;23.12;44.35;97613.69;5064019;28;20218;-65
2021/05/09 09:30:27;;;;;;;3.03;1.17;;;;;;;23.14;44.52;97611.66;5072174;28;20798;-66
2021/05/09 09:33:11;;;;;;;2.03;1.00;;;;;;;23.18;45.04;97601.47;5064891;28;20206;-64
2021/05/09 09:35:39;;;;;;;5.20;1.10;;;;;;;23.19;44.31;97603.13;5066060;28;20252;-61
2021/05/09 09:38:22;;;;;;;2.25;0.85;;;;;;;23.19;44.56;97608.44;5061416;28;20308;-62
2021/05/09 09:41:07;;;;;;;2.17;1.00;;;;;;;23.19;44.93;97597.78;5063138;28;20202;-62
2021/05/09 09:43:34;;;;;;;1.95;1.10;;;;;;;23.21;44.60;97585.09;5066632;28;20199;-60
2021/05/09 09:46:00;;;;;;;2.60;1.00;;;;;;;23.24;44.48;97582.88;5063332;28;20293;-63
2021/05/09 09:48:38;;;;;;;2.90;1.00;;;;;;;23.23;44.08;97575.91;5061878;28;20230;-63
2021/05/09 09:51:05;;;;;;;5.10;1.08;;;;;;;23.28;45.17;97575.31;5063062;28;20202;-59
2021/05/09 09:53:33;;;;;;;2.97;1.00;;;;;;;23.25;44.08;97573.88;5073281;28;20589;-66
2021/05/09 09:56:01;;;;;;;5.18;1.27;;;;;;;23.25;44.94;97568.53;5063716;28;20306;-65
2021/05/09 09:58:40;;;;;;;6.32;1.30;;;;;;;23.21;44.48;97561.91;5062796;28;20308;-64
2021/05/09 10:01:06;;;;;;;2.22;1.30;;;;;;;23.19;45.21;97555.94;5061670;28;20245;-61
2021/05/09 10:03:32;;;;;;;3.88;1.30;;;;;;;23.20;44.79;97560.28;5070846;28;20241;-66
2021/05/09 10:05:59;;;;;;;6.90;0.90;;;;;;;23.20;45.18;97560.28;5067900;28;20281;-65
2021/05/09 10:08:26;;;;;;;5.43;1.10;;;;;;;23.20;44.79;97549.59;5064948;28;20300;-59
2021/05/09 10:10:52;;;;;;;3.97;1.08;;;;;;;23.19;45.28;97550.59;5061561;28;20259;-61
2021/05/09 10:13:19;;;;;;;4.30;1.10;;;;;;;23.21;44.62;97556.56;5064823;28;20234;-61
2021/05/09 10:15:45;;;;;;;2.58;1.00;;;;;;;23.19;44.66;97553.28;5064671;28;20582;-65
2021/05/09 10:18:12;;;;;;;4.78;0.95;;;;;;;23.22;44.48;97544.09;5073915;28;21091;-63
2021/05/09 10:20:39;;;;;;;4.47;1.00;;;;;;;23.26;45.35;97548.88;5062942;28;20233;-62
2021/05/09 10:23:07;;;;;;;3.78;1.00;;;;;;;23.25;45.08;97541.88;5062144;28;20348;-64
2021/05/09 10:25:43;;;;;;;2.17;0.90;;;;;;;23.24;45.29;97550.88;5064718;28;20294;-65
2021/05/09 10:28:10;;;;;;;7.43;1.45;;;;;;;23.33;45.25;97548.09;5062848;28;20229;-60
2021/05/09 10:30:43;;;;;;;2.90;1.00;;;;;;;23.35;45.46;97538.06;5056314;28;20842;-68
2021/05/09 10:33:09;;;;;;;2.00;1.02;;;;;;;23.36;44.86;97543.22;5058994;28;20222;-64
2021/05/09 10:35:37;;;;;;;2.03;1.00;;;;;;;23.37;45.01;97541.41;5055790;28;20322;-70
2021/05/09 10:38:09;;;;;;;3.10;1.00;;;;;;;23.39;44.53;97536.69;5055353;28;20660;-66
2021/05/09 10:40:42;;;;;;;2.75;0.98;;;;;;;23.41;44.14;97534.66;5054034;28;20221;-64
2021/05/09 10:43:41;;;;;;;1.45;0.80;;;;;;;23.43;44.12;97537.94;5063435;28;20198;-60
2021/05/09 10:46:09;;;;;;;3.58;1.10;;;;;;;23.44;44.33;97539.63;5054119;28;20213;-59
2021/05/09 10:48:36;;;;;;;4.40;0.80;;;;;;;23.41;45.20;97537.31;5049678;28;20238;-62
2021/05/09 10:51:32;;;;;;;3.63;1.00;;;;;;;23.45;44.18;97535.94;5050180;28;20238;-64
2021/05/09 10:54:23;;;;;;;5.25;0.80;;;;;;;23.58;43.87;97538.75;5050551;28;20382;-63
2021/05/09 10:56:51;;;;;;;5.00;1.00;;;;;;;23.59;43.63;97532.38;5047308;28;20206;-62
2021/05/09 10:59:17;;;;;;;5.22;1.00;;;;;;;23.57;43.43;97534.41;5051931;28;20226;-65
2021/05/09 11:01:43;;;;;;;5.95;0.95;;;;;;;23.75;42.40;97533.16;5047105;28;20268;-61
2021/05/09 11:04:11;;;;;;;2.85;0.98;;;;;;;23.95;41.15;97531.53;5057352;28;20314;-61
2021/05/09 11:06:49;;;;;;;5.53;0.95;;;;;;;23.89;41.25;97518.94;5051661;28;20245;-65
2021/05/09 11:09:17;;;;;;;4.28;1.10;;;;;;;23.87;39.87;97515.66;5053749;28;20252;-63
2021/05/09 11:12:06;;;;;;;3.95;0.80;;;;;;;23.95;39.50;97509.34;5050622;28;20213;-66
2021/05/09 11:14:42;;;;;;;2.25;1.08;;;;;;;23.97;39.59;97516.13;5053851;28;20378;-64
2021/05/09 11:17:11;;;;;;;3.92;0.90;;;;;;;23.85;39.26;97514.16;5053565;28;20202;-64
2021/05/09 11:19:49;;;;;;;1.90;1.00;;;;;;;23.77;39.83;97518.59;5047154;28;20237;-63
2021/05/09 11:22:20;;;;;;;2.67;0.82;;;;;;;23.74;40.24;97513.63;5046629;28;20199;-66
2021/05/09 11:24:57;;;;;;;4.63;0.88;;;;;;;23.78;39.54;97503.41;5045941;28;20222;-62
2021/05/09 11:27:24;;;;;;;3.15;0.90;;;;;;;23.79;39.79;97503.22;5055220;28;20198;-62
2021/05/09 11:29:52;;;;;;;3.85;0.90;;;;;;;23.76;39.36;97494.78;5051111;28;20283;-65
2021/05/09 11:32:21;;;;;;;3.70;1.00;;;;;;;23.77;38.86;97502.59;5045846;28;20454;-64
2021/05/09 11:34:50;;;;;;;0.70;0.60;;;;;;;23.97;36.24;97499.31;5049411;28;20731;-63